Time;durP1;ratioP1;P1;durP2;ratioP2;P2;SDS_P1;SDS_P2;PMS_P1;PMS_P2;Temp;Humidity;BMP_temperature;BMP_pressure;BME280_temperature;BME280_humidity;BME280_pressure;Samples;Min_cycle;Max_cycle;Signal;HPM_P1;HPM_P2
2021/09/26 00:01:46;;;;;;;9.95;6.55;;;;;;;15.18;100.00;99172.15;1758524;79;21046;-64
2021/09/26 00:04:24;;;;;;;8.90;6.05;;;;;;;15.17;100.00;99170.86;1758428;79;20899;-73
2021/09/26 00:06:52;;;;;;;9.05;5.53;;;;;;;15.13;100.00;99167.37;1759013;79;20895;-71
2021/09/26 00:09:24;;;;;;;7.12;4.90;;;;;;;15.10;100.00;99166.98;1758663;79;20880;-72
2021/09/26 00:12:03;;;;;;;7.83;4.35;;;;;;;15.09;100.00;99173.22;1758493;79;21474;-72
2021/09/26 00:15:08;;;;;;;9.65;4.85;;;;;;;15.10;100.00;99170.97;1739689;80;21384;-72
2021/09/26 00:21:06;;;;;;;7.15;4.25;;;;;;;15.12;100.00;99169.16;1759802;80;20912;-74
2021/09/26 00:23:53;;;;;;;7.17;4.50;;;;;;;15.09;100.00;99167.90;1756079;80;21530;-71
2021/09/26 00:26:48;;;;;;;;;;;;;;;;;;;;;
2021/09/26 00:29:53;;;;;;;7.92;4.75;;;;;;;15.06;100.00;99175.94;1713334;81;21455;-72
2021/09/26 00:32:40;;;;;;;8.98;4.45;;;;;;;15.06;100.00;99179.05;1725593;81;21020;-71
2021/09/26 00:35:09;;;;;;;7.97;4.67;;;;;;;15.05;100.00;99176.85;1718038;82;21023;-73
2021/09/26 00:37:41;;;;;;;10.40;4.92;;;;;;;15.09;100.00;99172.34;1753742;80;20986;-73
2021/09/26 00:40:24;;;;;;;9.43;4.60;;;;;;;15.09;100.00;99183.84;1762009;80;20922;-74
2021/09/26 00:43:12;;;;;;;10.85;5.70;;;;;;;15.09;100.00;99183.84;1770023;79;21065;-73
2021/09/26 00:45:45;;;;;;;7.83;5.45;;;;;;;15.09;100.00;99182.52;1769427;79;21501;-73
2021/09/26 00:48:13;;;;;;;7.42;4.72;;;;;;;15.08;100.00;99178.11;1770169;81;20887;-74
2021/09/26 00:50:57;;;;;;;7.22;5.12;;;;;;;15.08;100.00;99186.53;1770243;81;20844;-73
2021/09/26 00:53:30;;;;;;;7.58;4.25;;;;;;;15.06;100.00;99177.73;1768768;79;20942;-73
2021/09/26 00:56:00;;;;;;;9.08;4.60;;;;;;;15.06;100.00;99176.40;1745429;81;21059;-72
2021/09/26 00:58:36;;;;;;;11.93;5.47;;;;;;;15.06;100.00;99182.58;1757479;79;21429;-74
2021/09/26 01:01:20;;;;;;;12.00;5.65;;;;;;;15.06;100.00;99184.37;1769593;79;20923;-74
2021/09/26 01:04:00;;;;;;;8.48;5.08;;;;;;;15.05;100.00;99186.61;1769107;79;20867;-74
2021/09/26 01:14:43;;;;;;;9.03;4.15;;;;;;;15.03;100.00;99187.09;1730093;80;21414;-73
2021/09/26 01:18:18;;;;;;;5.65;3.98;;;;;;;15.04;100.00;99188.39;1769236;79;21431;-71
2021/09/26 01:21:48;;;;;;;7.20;4.10;;;;;;;15.08;100.00;99191.84;1757958;80;20971;-72
2021/09/26 01:28:33;;;;;;;;;;;;;;;;;;;;;
2021/09/26 01:31:18;;;;;;;6.22;4.50;;;;;;;15.07;100.00;99198.06;1755896;81;20958;-72
2021/09/26 01:34:01;;;;;;;8.75;4.50;;;;;;;15.06;100.00;99197.65;1748188;81;20974;-72
2021/09/26 01:37:01;;;;;;;7.17;4.60;;;;;;;15.08;100.00;99194.50;1766246;81;21526;-73
2021/09/26 01:39:55;;;;;;;9.55;4.33;;;;;;;15.11;100.00;99195.30;1755272;79;21456;-72
2021/09/26 01:42:32;;;;;;;7.90;4.92;;;;;;;15.11;100.00;99198.41;1743054;82;21479;-71
2021/09/26 01:45:18;;;;;;;8.15;5.25;;;;;;;15.10;100.00;99196.22;1738916;81;20962;-71
2021/09/26 01:48:12;;;;;;;7.22;4.70;;;;;;;15.11;100.00;99189.11;1743594;79;20999;-71
2021/09/26 01:50:38;;;;;;;9.30;4.67;;;;;;;15.10;100.00;99198.00;1757621;79;20927;-72
2021/09/26 01:53:10;;;;;;;7.33;4.30;;;;;;;15.13;100.00;99201.91;1753408;79;20904;-73
2021/09/26 01:55:43;;;;;;;11.25;4.87;;;;;;;15.14;100.00;99201.03;1758227;81;20845;-73
2021/09/26 01:58:22;;;;;;;10.75;4.50;;;;;;;15.17;100.00;99209.39;1727463;81;20903;-73
2021/09/26 02:00:49;;;;;;;8.88;5.37;;;;;;;15.18;100.00;99200.50;1724914;79;21768;-71
2021/09/26 02:03:32;;;;;;;9.05;4.95;;;;;;;15.18;100.00;99208.02;1758424;79;21514;-71
2021/09/26 02:06:09;;;;;;;6.22;4.05;;;;;;;15.19;100.00;99214.20;1756307;79;21403;-70
2021/09/26 02:08:46;;;;;;;7.10;4.45;;;;;;;15.19;100.00;99215.53;1758883;79;22885;-72
2021/09/26 02:11:15;;;;;;;8.73;4.17;;;;;;;15.18;100.00;99209.34;1730914;79;20856;-72
2021/09/26 02:14:06;;;;;;;;;;;;;;;;;;;;;
2021/09/26 02:17:01;;;;;;;5.83;4.40;;;;;;;15.23;100.00;99210.11;1735036;81;20896;-72
2021/09/26 02:22:19;;;;;;;6.08;4.33;;;;;;;15.23;100.00;99221.20;1745876;79;21443;-72
2021/09/26 02:25:05;;;;;;;6.75;4.40;;;;;;;15.22;100.00;99222.11;1758483;79;20947;-72
2021/09/26 02:27:47;;;;;;;6.08;4.33;;;;;;;15.22;100.00;99228.75;1728471;81;20887;-71
2021/09/26 02:30:11;;;;;;;10.43;4.37;;;;;;;15.22;100.00;99227.42;1754883;79;20923;-73
2021/09/26 02:32:42;;;;;;;4.95;4.08;;;;;;;15.22;100.00;99230.08;1767926;81;21466;-71
2021/09/26 02:35:17;;;;;;;9.83;4.97;;;;;;;15.22;100.00;99230.95;1765746;79;21465;-73
2021/09/26 02:37:42;;;;;;;10.30;4.75;;;;;;;15.23;100.00;99235.81;1767809;79;20898;-73
2021/09/26 02:40:12;;;;;;;8.58;4.47;;;;;;;15.22;100.00;99238.05;1780786;79;20926;-71
2021/09/26 02:43:45;;;;;;;7.45;4.60;;;;;;;15.22;100.00;99232.28;1778334;79;20835;-71
2021/09/26 02:46:37;;;;;;;4.95;3.87;;;;;;;15.21;100.00;99230.53;1769838;79;21414;-72
2021/09/26 02:49:12;;;;;;;6.67;4.28;;;;;;;15.20;100.00;99235.43;1780514;79;21005;-73
2021/09/26 02:51:48;;;;;;;8.93;4.95;;;;;;;15.21;100.00;99232.31;1780029;79;21417;-72
2021/09/26 02:54:22;;;;;;;6.20;4.50;;;;;;;15.21;100.00;99238.50;1779114;79;20983;-72
2021/09/26 02:56:53;;;;;;;7.12;4.62;;;;;;;15.20;100.00;99239.87;1780698;80;21433;-72
2021/09/26 02:59:22;;;;;;;6.30;4.42;;;;;;;15.18;100.00;99239.91;1745971;80;20950;-72
2021/09/26 03:01:54;;;;;;;6.70;4.78;;;;;;;15.18;100.00;99242.56;1778696;79;21493;-73
2021/09/26 03:04:22;;;;;;;8.20;4.75;;;;;;;15.17;100.00;99243.47;1780609;79;20871;-73
2021/09/26 03:07:02;;;;;;;7.75;4.67;;;;;;;15.18;100.00;99250.99;1773491;79;20993;-71
2021/09/26 03:09:37;;;;;;;9.25;4.78;;;;;;;15.19;100.00;99255.39;1771848;79;21391;-71
2021/09/26 03:12:18;;;;;;;8.08;4.62;;;;;;;15.19;100.00;99259.38;1780814;80;20946;-71
2021/09/26 03:14:48;;;;;;;7.55;4.72;;;;;;;15.17;100.00;99262.08;1778599;79;21072;-72
2021/09/26 03:17:23;;;;;;;6.53;4.72;;;;;;;15.15;100.00;99257.70;1764470;79;21453;-73
2021/09/26 03:19:54;;;;;;;7.25;4.65;;;;;;;15.12;100.00;99259.48;1761919;80;20963;-72
2021/09/26 03:22:31;;;;;;;7.80;4.55;;;;;;;15.13;100.00;99260.36;1761674;80;20989;-73
2021/09/26 03:24:57;;;;;;;7.08;4.50;;;;;;;15.13;100.00;99257.70;1769196;81;20911;-72
2021/09/26 03:27:25;;;;;;;9.20;4.97;;;;;;;15.12;100.00;99264.80;1746234;81;21486;-73
2021/09/26 03:29:53;;;;;;;12.58;5.35;;;;;;;15.11;100.00;99267.04;1769051;79;21013;-73
2021/09/26 03:32:23;;;;;;;6.78;4.85;;;;;;;15.10;100.00;99267.95;1769248;79;21431;-72
2021/09/26 03:34:51;;;;;;;8.15;4.28;;;;;;;15.10;100.00;99265.75;1750358;79;20871;-75
2021/09/26 03:37:19;;;;;;;8.00;5.08;;;;;;;15.12;100.00;99266.12;1766163;79;20920;-73
2021/09/26 03:39:48;;;;;;;6.62;4.85;;;;;;;15.13;100.00;99269.66;1766153;80;21420;-75
2021/09/26 03:42:20;;;;;;;5.58;4.55;;;;;;;15.10;100.00;99260.44;1760403;80;20843;-72
2021/09/26 03:44:49;;;;;;;5.65;5.00;;;;;;;15.08;100.00;99267.11;1758936;81;20940;-73
2021/09/26 03:47:18;;;;;;;5.62;4.65;;;;;;;15.06;100.00;99270.25;1758935;79;21003;-73
2021/09/26 03:49:53;;;;;;;7.90;5.00;;;;;;;15.06;100.00;99272.91;1758745;79;20999;-73
2021/09/26 03:52:24;;;;;;;7.40;4.70;;;;;;;15.08;100.00;99272.88;1753995;81;21170;-72
2021/09/26 03:54:53;;;;;;;7.97;4.57;;;;;;;15.09;100.00;99270.64;1753139;80;20923;-72
2021/09/26 03:57:22;;;;;;;10.05;5.35;;;;;;;15.06;100.00;99270.25;1753632;80;20968;-72
2021/09/26 03:59:51;;;;;;;10.40;5.37;;;;;;;15.04;100.00;99275.18;1753429;80;20939;-69
2021/09/26 04:02:19;;;;;;;8.35;5.10;;;;;;;15.01;100.00;99270.81;1753564;80;21443;-71
2021/09/26 04:04:47;;;;;;;7.75;5.10;;;;;;;15.02;100.00;99273.02;1753237;80;21121;-73
2021/09/26 04:07:15;;;;;;;9.38;5.05;;;;;;;15.02;100.00;99273.89;1753587;80;20904;-73
2021/09/26 04:09:44;;;;;;;8.30;4.65;;;;;;;15.03;100.00;99273.44;1741308;81;20884;-73
2021/09/26 04:12:12;;;;;;;7.37;5.40;;;;;;;15.03;100.00;99273.44;1753753;80;20964;-73
2021/09/26 04:14:45;;;;;;;7.55;5.30;;;;;;;15.03;100.00;99278.30;1754085;80;20892;-71
2021/09/26 04:17:13;;;;;;;6.00;4.62;;;;;;;15.04;100.00;99281.83;1755802;80;21446;-72
2021/09/26 04:19:41;;;;;;;9.35;5.17;;;;;;;15.03;100.00;99282.28;1788533;78;20868;-72
2021/09/26 04:22:09;;;;;;;7.30;5.30;;;;;;;15.07;100.00;99287.95;1775434;79;21537;-72
2021/09/26 04:24:41;;;;;;;9.98;6.28;;;;;;;15.08;100.00;99281.72;1765311;80;21383;-73
2021/09/26 04:27:10;;;;;;;9.85;7.67;;;;;;;15.10;100.00;99283.02;1764486;81;20899;-72
2021/09/26 04:29:38;;;;;;;9.10;7.03;;;;;;;15.10;100.00;99291.86;1769891;81;21097;-73
2021/09/26 04:32:06;;;;;;;9.23;5.40;;;;;;;15.09;100.00;99286.13;1769618;79;20867;-72
2021/09/26 04:34:41;;;;;;;7.60;5.20;;;;;;;15.10;100.00;99287.00;1740037;81;20995;-72
2021/09/26 04:37:09;;;;;;;8.95;5.85;;;;;;;15.12;100.00;99283.41;1770232;79;21458;-71
2021/09/26 04:39:39;;;;;;;8.28;5.65;;;;;;;15.15;100.00;99288.26;1784376;80;20869;-72
2021/09/26 04:42:08;;;;;;;7.45;5.83;;;;;;;15.14;100.00;99274.55;1783482;79;21192;-72
2021/09/26 04:44:42;;;;;;;8.83;6.25;;;;;;;15.12;100.00;99284.73;1784146;80;20868;-72
2021/09/26 04:47:13;;;;;;;7.35;5.28;;;;;;;15.15;100.00;99290.91;1784013;80;20928;-73
2021/09/26 04:49:43;;;;;;;9.10;5.87;;;;;;;15.17;100.00;99294.41;1780375;80;21427;-73
2021/09/26 04:52:13;;;;;;;8.75;6.10;;;;;;;15.20;100.00;99297.88;1782773;80;20916;-73
2021/09/26 04:54:46;;;;;;;6.53;5.47;;;;;;;15.24;100.00;99300.01;1784000;80;21107;-73
2021/09/26 04:57:14;;;;;;;8.28;6.03;;;;;;;15.25;100.00;99301.30;1784269;79;20940;-72
2021/09/26 04:59:45;;;;;;;9.65;5.80;;;;;;;15.27;100.00;99307.91;1783077;80;21432;-73
2021/09/26 05:02:12;;;;;;;6.62;5.00;;;;;;;15.25;100.00;99299.97;1784217;80;21415;-72
2021/09/26 05:04:40;;;;;;;6.78;5.33;;;;;;;15.25;100.00;99303.96;1784223;80;20891;-74
2021/09/26 05:07:09;;;;;;;7.60;5.40;;;;;;;15.28;100.00;99302.56;1784448;80;21300;-74
2021/09/26 05:09:37;;;;;;;6.08;4.83;;;;;;;15.30;100.00;99310.05;1784070;80;20978;-74
2021/09/26 05:12:09;;;;;;;9.93;6.12;;;;;;;15.31;100.00;99311.80;1781837;80;21445;-73
2021/09/26 05:14:37;;;;;;;7.65;5.62;;;;;;;15.32;100.00;99311.34;1753146;82;20935;-72
2021/09/26 05:17:07;;;;;;;8.65;5.62;;;;;;;15.31;100.00;99314.91;1778092;80;21537;-73
2021/09/26 05:19:35;;;;;;;9.00;5.58;;;;;;;15.32;100.00;99316.20;1783076;80;21269;-72
2021/09/26 05:22:03;;;;;;;8.03;5.45;;;;;;;15.37;100.00;99321.41;1761822;80;21406;-72
2021/09/26 05:24:31;;;;;;;6.53;5.83;;;;;;;15.39;100.00;99327.11;1777522;79;20904;-72
2021/09/26 05:27:00;;;;;;;9.70;6.30;;;;;;;15.39;100.00;99321.80;1761965;80;20884;-72
2021/09/26 05:29:28;;;;;;;9.13;6.15;;;;;;;15.40;100.00;99326.66;1783956;79;20894;-72
2021/09/26 05:31:55;;;;;;;9.20;6.12;;;;;;;15.39;100.00;99330.22;1769101;80;21097;-71
2021/09/26 05:34:24;;;;;;;8.73;6.30;;;;;;;15.40;100.00;99334.17;1787121;79;20882;-72
2021/09/26 05:36:54;;;;;;;9.30;6.12;;;;;;;15.41;100.00;99332.39;1783487;79;20907;-72
2021/09/26 05:39:25;;;;;;;8.15;6.08;;;;;;;15.44;100.00;99337.64;1784309;79;20879;-72
2021/09/26 05:41:53;;;;;;;8.20;6.62;;;;;;;15.43;100.00;99331.91;1779583;79;20915;-72
2021/09/26 05:44:21;;;;;;;6.58;5.87;;;;;;;15.44;100.00;99333.65;1778074;79;21081;-72
2021/09/26 05:46:49;;;;;;;8.28;6.08;;;;;;;15.44;100.00;99333.65;1777735;80;20919;-71
2021/09/26 05:49:17;;;;;;;7.25;5.75;;;;;;;15.46;100.00;99339.80;1778056;79;20856;-73
2021/09/26 05:51:45;;;;;;;6.58;5.37;;;;;;;15.50;100.00;99333.51;1778093;79;20872;-72
2021/09/26 05:54:17;;;;;;;7.67;5.35;;;;;;;15.53;100.00;99343.20;1778139;79;21435;-72
2021/09/26 05:56:48;;;;;;;8.88;5.55;;;;;;;15.55;100.00;99344.03;1777716;79;21103;-72
2021/09/26 05:59:17;;;;;;;9.68;5.53;;;;;;;15.55;100.00;99340.92;1778033;79;21411;-72
2021/09/26 06:01:48;;;;;;;8.70;5.25;;;;;;;15.56;100.00;99345.33;1778200;80;20837;-72
2021/09/26 06:04:21;;;;;;;7.35;5.30;;;;;;;15.59;100.00;99348.41;1759116;80;21438;-72
2021/09/26 06:06:48;;;;;;;8.23;5.73;;;;;;;15.63;100.00;99352.78;1770561;79;21419;-72
2021/09/26 06:09:16;;;;;;;6.80;5.72;;;;;;;15.64;100.00;99351.41;1762097;80;21418;-71
2021/09/26 06:11:45;;;;;;;7.50;5.50;;;;;;;15.65;100.00;99357.15;1732798;80;20940;-71
2021/09/26 06:14:20;;;;;;;7.70;5.58;;;;;;;15.67;100.00;99367.75;1784319;79;21452;-71
2021/09/26 06:16:48;;;;;;;8.95;6.15;;;;;;;15.68;100.00;99367.72;1746813;80;20888;-71
2021/09/26 06:19:18;;;;;;;10.08;5.80;;;;;;;15.73;100.00;99368.94;1748490;80;21424;-72
2021/09/26 06:21:45;;;;;;;7.15;5.40;;;;;;;15.74;100.00;99371.56;1748518;80;21054;-72
2021/09/26 06:24:13;;;;;;;10.80;6.50;;;;;;;15.77;100.00;99372.40;1748610;80;21467;-71
2021/09/26 06:26:41;;;;;;;9.13;5.80;;;;;;;15.76;100.00;99371.52;1748222;80;20927;-72
2021/09/26 06:29:08;;;;;;;7.85;5.60;;;;;;;15.77;100.00;99366.63;1748589;80;20939;-72
2021/09/26 06:31:36;;;;;;;6.10;5.45;;;;;;;15.81;100.00;99368.75;1748494;81;20949;-72
2021/09/26 06:34:04;;;;;;;9.13;6.28;;;;;;;15.82;100.00;99375.82;1748729;82;21099;-72
2021/09/26 06:36:32;;;;;;;8.10;5.97;;;;;;;15.82;100.00;99377.16;1748361;80;20885;-72
2021/09/26 06:38:59;;;;;;;8.78;6.10;;;;;;;15.82;100.00;99385.13;1748619;80;21432;-73
2021/09/26 06:41:27;;;;;;;6.87;5.58;;;;;;;15.83;100.00;99382.89;1748585;80;20940;-71
2021/09/26 06:43:57;;;;;;;9.03;6.37;;;;;;;15.86;100.00;99382.81;1748783;80;21404;-72
2021/09/26 06:46:26;;;;;;;10.75;6.37;;;;;;;15.91;100.00;99390.23;1748495;80;21743;-72
2021/09/26 06:48:58;;;;;;;7.55;6.28;;;;;;;15.93;100.00;99391.94;1748534;80;21412;-73
2021/09/26 06:51:32;;;;;;;11.10;6.62;;;;;;;15.94;100.00;99392.36;1748380;80;21359;-72
2021/09/26 06:54:00;;;;;;;8.40;5.78;;;;;;;15.96;100.00;99389.66;1748137;80;20894;-73
2021/09/26 06:56:29;;;;;;;8.05;5.58;;;;;;;15.96;100.00;99390.54;1747748;80;20872;-71
2021/09/26 06:58:56;;;;;;;8.08;5.60;;;;;;;15.99;100.00;99394.91;1748149;80;21392;-72
2021/09/26 07:01:26;;;;;;;8.50;5.42;;;;;;;16.03;100.00;99395.26;1748195;80;20928;-72
2021/09/26 07:03:53;;;;;;;7.83;5.92;;;;;;;16.05;100.00;99393.44;1747956;80;21406;-73
2021/09/26 07:06:21;;;;;;;8.00;6.15;;;;;;;16.08;100.00;99397.80;1748394;80;20856;-73
2021/09/26 07:08:49;;;;;;;9.50;6.00;;;;;;;16.08;100.00;99399.14;1749500;80;21459;-71
2021/09/26 07:11:20;;;;;;;9.73;5.75;;;;;;;16.10;100.00;99403.55;1748319;80;21010;-71
2021/09/26 07:13:50;;;;;;;9.50;5.95;;;;;;;16.15;100.00;99400.31;1744476;80;20981;-74
2021/09/26 07:16:17;;;;;;;8.35;6.15;;;;;;;16.20;100.00;99410.39;1748552;80;21542;-73
2021/09/26 07:18:45;;;;;;;8.83;6.15;;;;;;;16.22;100.00;99403.23;1748180;80;21023;-74
2021/09/26 07:21:17;;;;;;;9.88;6.55;;;;;;;16.24;100.00;99409.39;1748604;80;21012;-73
2021/09/26 07:23:46;;;;;;;8.50;5.72;;;;;;;16.25;100.00;99408.94;1748372;80;21124;-73
2021/09/26 07:26:14;;;;;;;9.70;6.20;;;;;;;16.29;100.00;99410.61;1748826;80;20852;-73
2021/09/26 07:28:42;;;;;;;13.20;5.95;;;;;;;16.34;100.00;99406.05;1747508;80;20976;-73
2021/09/26 07:31:10;;;;;;;10.23;6.37;;;;;;;16.40;100.00;99410.34;1748447;80;20973;-72
2021/09/26 07:33:38;;;;;;;7.35;6.12;;;;;;;16.45;100.00;99408.44;1748281;80;20923;-70
2021/09/26 07:36:06;;;;;;;9.75;6.28;;;;;;;16.47;100.00;99414.13;1748060;80;21093;-73
2021/09/26 07:38:34;;;;;;;8.15;6.55;;;;;;;16.51;100.00;99414.93;1747668;80;20899;-66
2021/09/26 07:41:02;;;;;;;7.53;6.12;;;;;;;16.58;100.00;99425.88;1744761;80;20957;-66
2021/09/26 07:43:30;;;;;;;24.30;15.30;;;;;;;16.66;100.00;99424.79;1748001;80;20952;-66
2021/09/26 07:45:58;;;;;;;13.55;9.68;;;;;;;16.75;100.00;99428.13;1744234;80;20910;-66
2021/09/26 07:48:26;;;;;;;19.73;12.05;;;;;;;16.82;100.00;99423.05;1748053;80;21098;-66
2021/09/26 07:50:54;;;;;;;15.40;10.28;;;;;;;16.92;100.00;99434.74;1748199;80;20942;-66
2021/09/26 07:53:24;;;;;;;10.30;6.67;;;;;;;16.99;100.00;99432.33;1748083;80;21465;-66
2021/09/26 07:55:52;;;;;;;9.78;5.87;;;;;;;17.09;100.00;99430.77;1748267;80;20959;-66
2021/09/26 07:58:20;;;;;;;7.85;5.42;;;;;;;17.26;100.00;99430.70;1749384;80;21462;-66
2021/09/26 08:00:48;;;;;;;10.28;6.35;;;;;;;17.26;100.00;99430.70;1748478;80;21914;-67
2021/09/26 08:03:15;;;;;;;8.33;5.70;;;;;;;17.41;100.00;99429.37;1748602;80;20860;-67
2021/09/26 08:05:44;;;;;;;79.10;39.27;;;;;;;17.41;100.00;99429.37;1748094;80;21446;-67
2021/09/26 08:08:11;;;;;;;148.72;71.35;;;;;;;17.48;100.00;99422.07;1748456;80;20867;-66
2021/09/26 08:10:40;;;;;;;127.53;63.25;;;;;;;17.67;100.00;99419.78;1748353;80;21248;-66
2021/09/26 08:13:08;;;;;;;63.05;34.27;;;;;;;17.67;100.00;99419.78;1748375;80;21749;-64
2021/09/26 08:15:35;;;;;;;80.30;42.23;;;;;;;17.77;100.00;99422.13;1748393;80;20895;-65
2021/09/26 08:18:03;;;;;;;154.82;70.45;;;;;;;17.89;100.00;99424.41;1755204;78;21003;-65
2021/09/26 08:20:31;;;;;;;274.20;137.65;;;;;;;17.97;100.00;99425.95;1754803;80;20968;-65
2021/09/26 08:23:00;;;;;;;133.67;74.80;;;;;;;18.03;100.00;99428.00;1748076;80;20860;-66
2021/09/26 08:25:29;;;;;;;174.47;90.35;;;;;;;18.10;100.00;99435.36;1778983;78;21077;-66
2021/09/26 08:27:59;;;;;;;99.37;53.23;;;;;;;18.13;100.00;99433.46;1741995;80;20880;-65
2021/09/26 08:30:27;;;;;;;47.95;26.20;;;;;;;18.15;100.00;99434.28;1756513;80;20951;-65
2021/09/26 08:32:58;;;;;;;45.15;25.43;;;;;;;18.15;100.00;99432.08;1746197;80;20957;-65
2021/09/26 08:35:26;;;;;;;32.90;19.57;;;;;;;18.15;100.00;99434.28;1766419;79;20903;-65
2021/09/26 08:37:56;;;;;;;15.93;10.68;;;;;;;18.15;100.00;99432.95;1766385;79;21747;-65
2021/09/26 08:40:24;;;;;;;10.55;7.50;;;;;;;18.18;100.00;99435.52;1766659;79;20931;-64
2021/09/26 08:42:52;;;;;;;129.10;80.15;;;;;;;18.19;100.00;99429.25;1774430;79;21001;-65
2021/09/26 08:45:19;;;;;;;156.43;86.42;;;;;;;18.22;100.00;99422.94;1766515;79;20943;-64
2021/09/26 08:47:48;;;;;;;302.90;260.60;;;;;;;18.27;100.00;99430.34;1766575;79;20919;-64
2021/09/26 08:50:19;;;;;;;203.47;146.07;;;;;;;18.31;100.00;99426.64;1766241;81;21939;-64
2021/09/26 08:52:47;;;;;;;205.32;125.72;;;;;;;18.37;100.00;99426.91;1762462;79;20907;-64
2021/09/26 08:55:15;;;;;;;223.07;125.75;;;;;;;18.44;100.00;99421.77;1766590;79;20947;-65
2021/09/26 08:57:44;;;;;;;153.93;84.10;;;;;;;18.56;100.00;99420.91;1766318;79;20923;-65
2021/09/26 09:00:15;;;;;;;243.20;136.43;;;;;;;18.67;100.00;99420.58;1766721;79;20878;-65
2021/09/26 09:02:47;;;;;;;103.67;62.53;;;;;;;18.76;100.00;99415.38;1741438;79;21101;-65
2021/09/26 09:05:33;;;;;;;49.65;32.33;;;;;;;18.85;100.00;99413.71;1766893;79;20895;-66
2021/09/26 09:08:17;;;;;;;92.70;67.85;;;;;;;18.93;100.00;99414.34;1764932;79;20934;-64
2021/09/26 09:11:01;;;;;;;79.20;48.55;;;;;;;19.03;100.00;99409.53;1766184;79;20900;-66
2021/09/26 09:13:41;;;;;;;132.20;84.62;;;;;;;19.14;100.00;99416.23;1762505;79;20915;-66
2021/09/26 09:16:13;;;;;;;244.07;177.87;;;;;;;19.23;100.00;99415.48;1762651;81;21077;-65
2021/09/26 09:18:45;;;;;;;77.05;53.20;;;;;;;19.29;100.00;99416.13;1760737;79;20895;-65
2021/09/26 09:21:28;;;;;;;44.15;33.75;;;;;;;19.32;100.00;99412.47;1767040;81;20861;-65
2021/09/26 09:24:20;;;;;;;69.35;53.60;;;;;;;19.35;100.00;99417.23;1765139;81;20892;-65
2021/09/26 09:26:47;;;;;;;62.53;52.38;;;;;;;19.41;100.00;99411.69;1767586;80;20929;-65
2021/09/26 09:29:16;;;;;;;27.70;19.90;;;;;;;19.55;100.00;99408.98;1767701;81;21100;-66
2021/09/26 09:31:51;;;;;;;49.93;30.80;;;;;;;19.68;100.00;99407.11;1747720;81;20931;-66
2021/09/26 09:34:32;;;;;;;50.75;33.83;;;;;;;19.81;100.00;99402.14;1763154;81;20946;-66
2021/09/26 09:37:22;;;;;;;49.75;34.35;;;;;;;19.93;100.00;99403.49;1765048;81;21011;-65
2021/09/26 09:40:10;;;;;;;46.85;33.33;;;;;;;20.04;100.00;99392.75;1762095;81;20940;-65
2021/09/26 09:42:42;;;;;;;24.90;17.92;;;;;;;20.20;100.00;99395.67;1767778;81;21133;-64
2021/09/26 09:45:19;;;;;;;24.40;16.70;;;;;;;20.35;100.00;99388.36;1762318;81;20935;-65
2021/09/26 09:48:12;;;;;;;40.73;31.30;;;;;;;20.45;100.00;99395.58;1766642;81;21506;-65
2021/09/26 09:50:50;;;;;;;30.68;20.85;;;;;;;20.55;100.00;99387.55;1766087;81;21426;-66
2021/09/26 09:53:28;;;;;;;35.25;21.73;;;;;;;20.71;100.00;99391.77;1761918;79;21490;-66
2021/09/26 09:56:08;;;;;;;44.42;25.72;;;;;;;20.88;100.00;99387.91;1765580;81;21104;-65
2021/09/26 09:58:40;;;;;;;34.73;21.57;;;;;;;21.05;100.00;99387.16;1765126;81;20880;-66
2021/09/26 10:01:13;;;;;;;231.78;126.20;;;;;;;21.20;100.00;99386.93;1763896;81;20931;-65
2021/09/26 10:03:56;;;;;;;137.22;80.57;;;;;;;21.29;100.00;99382.08;1767669;81;20901;-67
2021/09/26 10:06:30;;;;;;;126.07;76.60;;;;;;;21.44;100.00;99382.31;1765164;81;20915;-66
2021/09/26 10:09:00;;;;;;;295.48;189.22;;;;;;;21.60;100.00;99378.83;1767687;79;21009;-66
2021/09/26 10:11:30;;;;;;;173.68;107.67;;;;;;;21.77;100.00;99390.14;1763675;81;21416;-69
2021/09/26 10:13:58;;;;;;;117.00;71.70;;;;;;;21.92;100.00;99384.02;1759066;81;20927;-64
2021/09/26 10:16:26;;;;;;;75.52;44.93;;;;;;;22.09;100.00;99389.08;1767270;81;20863;-64
2021/09/26 10:18:54;;;;;;;64.95;40.55;;;;;;;22.23;100.00;99389.27;1766827;81;20907;-63
2021/09/26 10:21:21;;;;;;;23.42;15.98;;;;;;;22.35;100.00;99389.16;1759958;80;21066;-64
2021/09/26 10:23:50;;;;;;;19.57;12.58;;;;;;;22.43;100.00;99385.60;1750656;82;21453;-64
2021/09/26 10:26:19;;;;;;;12.85;8.93;;;;;;;22.44;100.00;99380.14;1745982;80;20899;-72
2021/09/26 10:28:46;;;;;;;22.17;10.80;;;;;;;22.43;100.00;99374.84;1765302;79;21482;-72
2021/09/26 10:31:16;;;;;;;19.62;11.60;;;;;;;22.37;100.00;99380.06;1783625;79;20984;-71
2021/09/26 10:33:45;;;;;;;19.62;12.98;;;;;;;22.26;100.00;99378.39;1778152;79;21096;-72
2021/09/26 10:36:12;;;;;;;15.88;7.87;;;;;;;22.12;100.00;99374.15;1781777;80;20849;-71
2021/09/26 10:38:40;;;;;;;10.20;6.08;;;;;;;22.03;100.00;99374.13;1751151;80;20939;-71
2021/09/26 10:41:08;;;;;;;11.68;5.67;;;;;;;22.07;100.00;99372.16;1775654;80;20861;-70
2021/09/26 10:43:36;;;;;;;12.80;6.30;;;;;;;22.16;100.00;99364.52;1783756;79;21521;-71
2021/09/26 10:46:21;;;;;;;7.80;5.85;;;;;;;22.26;100.00;99363.61;1783946;79;21751;-69
2021/09/26 10:49:11;;;;;;;5.50;4.47;;;;;;;22.32;100.00;99353.90;1785891;79;20970;-69
2021/09/26 10:51:56;;;;;;;6.80;4.67;;;;;;;22.46;100.00;99355.41;1768146;79;20858;-69
2021/09/26 10:54:34;;;;;;;11.70;4.65;;;;;;;22.54;100.00;99353.19;1783801;80;20880;-68
2021/09/26 10:57:19;;;;;;;5.72;3.83;;;;;;;22.60;100.00;99346.15;1782554;80;20949;-69
2021/09/26 10:59:53;;;;;;;6.50;4.08;;;;;;;22.61;100.00;99348.36;1781619;80;21125;-69
2021/09/26 11:02:32;;;;;;;3.85;3.00;;;;;;;22.61;100.00;99345.20;1773802;80;20986;-69
2021/09/26 11:05:02;;;;;;;5.83;3.52;;;;;;;22.63;100.00;99350.02;1768112;80;20897;-69
2021/09/26 11:07:33;;;;;;;5.28;3.33;;;;;;;22.66;100.00;99350.33;1780310;80;20951;-70
2021/09/26 11:10:06;;;;;;;4.65;3.72;;;;;;;22.70;100.00;99342.98;1781917;80;21005;-71
2021/09/26 11:12:49;;;;;;;6.35;3.92;;;;;;;22.73;100.00;99338.34;1781104;80;21070;-70
2021/09/26 11:15:20;;;;;;;5.55;3.75;;;;;;;22.74;100.00;99331.14;1781336;80;20889;-69
2021/09/26 11:17:56;;;;;;;5.05;3.95;;;;;;;22.73;100.00;99334.30;1777635;80;20891;-70
2021/09/26 11:20:35;;;;;;;6.58;4.08;;;;;;;22.74;100.00;99328.45;1778267;79;20941;-69
2021/09/26 11:23:11;;;;;;;5.37;3.45;;;;;;;22.76;100.00;99327.42;1738288;81;21435;-70
2021/09/26 11:26:04;;;;;;;7.55;3.60;;;;;;;22.80;100.00;99326.34;1736623;81;21091;-71
2021/09/26 11:28:36;;;;;;;12.98;4.55;;;;;;;22.83;100.00;99322.62;1757578;80;20895;-71
2021/09/26 11:31:05;;;;;;;;;;;;;;;22.77;100.00;99318.88;1769870;81;20891;-70
2021/09/26 11:33:58;;;;;;;11.12;5.95;;;;;;;22.66;100.00;99323.92;1766837;80;20427;-70
2021/09/26 11:36:29;;;;;;;14.53;5.72;;;;;;;22.53;100.00;99323.70;1764249;81;20919;-69
2021/09/26 11:38:57;;;;;;;14.50;8.78;;;;;;;22.49;100.00;99318.95;1767683;81;21765;-69
2021/09/26 11:41:40;;;;;;;7.78;5.25;;;;;;;22.48;100.00;99317.22;1736128;81;20926;-70
2021/09/26 11:44:08;;;;;;;5.87;3.72;;;;;;;22.46;100.00;99310.18;1737296;82;20899;-71
2021/09/26 11:46:36;;;;;;;8.20;3.37;;;;;;;22.50;100.00;99318.00;1755061;81;21515;-70
2021/09/26 11:49:07;;;;;;;6.15;3.52;;;;;;;22.59;100.00;99318.87;1767766;81;20875;-70
2021/09/26 11:51:36;;;;;;;5.90;3.37;;;;;;;22.64;100.00;99319.97;1767175;81;21364;-70
2021/09/26 11:54:04;;;;;;;3.33;2.83;;;;;;;22.66;100.00;99315.86;1767335;81;20864;-70
2021/09/26 11:56:34;;;;;;;5.03;3.05;;;;;;;22.68;100.00;99304.06;1767525;81;20864;-71
2021/09/26 11:59:07;;;;;;;5.53;3.50;;;;;;;22.74;100.00;99309.63;1744157;81;21487;-69
2021/09/26 12:01:38;;;;;;;5.53;3.15;;;;;;;22.75;100.00;99301.48;1751056;81;21472;-67
2021/09/26 12:04:24;;;;;;;6.58;3.20;;;;;;;22.84;100.00;99297.45;1772241;81;21096;-67
2021/09/26 12:07:00;;;;;;;6.72;3.17;;;;;;;22.97;100.00;99299.01;1768706;81;20883;-68
2021/09/26 12:09:48;;;;;;;9.68;3.77;;;;;;;23.07;100.00;99290.34;1746424;81;20901;-66
2021/09/26 12:12:21;;;;;;;4.12;3.22;;;;;;;23.07;100.00;99285.45;1767869;81;20893;-67